الصفحة الرئيسية
METAR-TAF:

METAR-TAF

مطار :

شايتن, تشيلي

دائرة عرض: 42-55-58S, خط طول: 072-41-58W, ارتفاع: 4 متر

مراقبة الطقس الحالي

تاريخ ووقت الإصدار 55 دقيقة قبل الساعة 21:00UTC
ريح 3 عقدة من الجنوب الغربي
درجة الحرارة 9°درجة مئوية
الرطوبة 93%
ضغط 1024 hPa
الرؤية 10 كم أو أكثر
الغيوم لا تقل 1500 م ولا وجود لمزنة ركامية السحاب الأسود

METAR: SCTN 212100Z AUTO 22003KT CAVOK 09/08 Q1024

زمن: 17:55 (21:55 UTC)


TAF: مفقودة

أرصاد الطقس والتوقعات من أكثر من 4000 مطار (تقارير الطقس للمطار METAR والتنبؤ بالطقس بالمطارTAF).

المحطات المتاحة هي النقط الصفراء والحمراء على الخريطة.

حرك المؤشر فوق النقطة لمعرفة اسم المحطة.

ثم انقر لمعرفة أرصاد وتوقعات الطقس.

لتغيير الخارطة: اضغط على الأزرار الخضراء مع رمز الصليب الأسود للتكبير. على الزر الأخضر مع شرطة للتصغير، أو على الأسهم الخضراء للخرائط المجاورة.


METAR-TAF: